createdAt,value
2017-07-17T00:01:11.977Z,99.99
2017-07-17T00:02:24.569Z,99.99
2017-07-17T00:03:36.852Z,99.99
2017-07-17T00:04:49.190Z,99.99
2017-07-17T00:06:01.466Z,99.99
2017-07-17T00:07:13.703Z,99.99
2017-07-17T00:08:26.040Z,99.99
2017-07-17T00:09:38.627Z,99.99
2017-07-17T00:10:51.175Z,99.99
2017-07-17T00:12:03.764Z,99.99
2017-07-17T00:13:16.366Z,99.99
2017-07-17T00:14:28.679Z,99.99
2017-07-17T00:15:41.301Z,99.99
2017-07-17T00:16:53.314Z,99.99
2017-07-17T00:18:05.530Z,99.99
2017-07-17T00:19:17.155Z,99.99
2017-07-17T00:20:29.455Z,99.99
2017-07-17T00:21:41.151Z,99.99
2017-07-17T00:22:52.841Z,99.99
2017-07-17T00:24:05.110Z,99.99
2017-07-17T00:25:17.374Z,99.99
2017-07-17T00:26:29.382Z,99.99
2017-07-17T00:27:42.003Z,99.99
2017-07-17T00:28:54.625Z,99.99
2017-07-17T00:30:06.919Z,99.99
2017-07-17T00:31:18.963Z,99.99
2017-07-17T00:32:31.610Z,99.99
2017-07-17T00:33:44.172Z,99.99
2017-07-17T00:34:56.451Z,99.99
2017-07-17T00:36:09.051Z,99.99
2017-07-17T00:37:21.635Z,99.99
2017-07-17T00:38:33.616Z,99.99
2017-07-17T00:39:45.588Z,99.99
2017-07-17T00:40:58.215Z,99.99
2017-07-17T00:42:10.782Z,99.99
2017-07-17T00:43:23.348Z,99.99
2017-07-17T00:44:35.658Z,99.99
2017-07-17T00:45:47.931Z,99.99
2017-07-17T00:47:00.483Z,99.99
2017-07-17T00:48:12.079Z,99.99
2017-07-17T00:49:24.401Z,99.99
2017-07-17T00:50:36.663Z,99.99
2017-07-17T00:51:48.968Z,99.99
2017-07-17T00:53:01.230Z,99.99
2017-07-17T00:54:12.858Z,99.99
2017-07-17T00:55:25.129Z,99.99
2017-07-17T00:56:37.118Z,99.99
2017-07-17T00:57:49.648Z,99.99
2017-07-17T00:59:01.928Z,99.99
2017-07-17T01:00:14.201Z,99.99
2017-07-17T01:01:26.812Z,99.99
2017-07-17T01:02:38.862Z,99.99
2017-07-17T01:03:51.208Z,99.99
2017-07-17T01:05:03.149Z,99.99
2017-07-17T01:06:15.737Z,99.99
2017-07-17T01:07:27.718Z,99.99
2017-07-17T01:08:40.361Z,99.99
2017-07-17T01:09:52.971Z,99.99
2017-07-17T01:11:04.631Z,99.99
2017-07-17T01:12:16.645Z,99.99
2017-07-17T01:13:29.313Z,99.99
2017-07-17T01:14:40.976Z,99.99
2017-07-17T01:15:53.213Z,99.99
2017-07-17T01:17:05.211Z,99.99
2017-07-17T01:18:17.234Z,99.99
2017-07-17T01:19:29.548Z,99.99
2017-07-17T01:20:42.113Z,99.99
2017-07-17T01:21:54.682Z,99.99
2017-07-17T01:23:07.262Z,99.99
2017-07-17T01:24:18.616Z,99.99
2017-07-17T01:25:30.939Z,99.99
2017-07-17T01:26:43.280Z,99.99
2017-07-17T01:27:55.880Z,99.99
2017-07-17T01:29:08.209Z,99.99
2017-07-17T01:30:20.860Z,99.99
2017-07-17T01:31:33.201Z,99.99
2017-07-17T01:32:45.483Z,99.99
2017-07-17T01:33:57.779Z,99.99
2017-07-17T01:35:09.702Z,99.99
2017-07-17T01:36:22.357Z,99.99
2017-07-17T01:37:34.678Z,99.99
2017-07-17T01:38:47.262Z,99.99
2017-07-17T01:39:58.632Z,99.99
2017-07-17T01:41:10.948Z,99.99
2017-07-17T01:42:22.971Z,99.99
2017-07-17T01:43:34.909Z,99.99
2017-07-17T01:44:47.262Z,99.99
2017-07-17T01:45:59.860Z,99.99
2017-07-17T01:47:11.855Z,99.99
2017-07-17T01:48:24.152Z,99.99
2017-07-17T01:49:36.152Z,99.99
2017-07-17T01:50:48.770Z,99.99
2017-07-17T01:52:01.036Z,99.99
2017-07-17T01:53:13.650Z,99.99
2017-07-17T01:54:25.616Z,99.99
2017-07-17T01:55:37.922Z,99.99
2017-07-17T01:56:50.530Z,99.99
2017-07-17T01:58:02.172Z,99.99
2017-07-17T01:59:14.475Z,99.99
2017-07-17T02:00:27.152Z,99.99
2017-07-17T02:01:39.821Z,99.99
2017-07-17T02:02:51.766Z,99.99
2017-07-17T02:04:03.712Z,99.99
2017-07-17T02:05:16.341Z,99.99
2017-07-17T02:06:28.587Z,99.99
2017-07-17T02:07:40.527Z,99.99
2017-07-17T02:08:52.792Z,99.99
2017-07-17T02:10:05.055Z,99.99
2017-07-17T02:11:17.031Z,99.99
2017-07-17T02:12:29.289Z,99.99
2017-07-17T02:13:41.539Z,99.99
2017-07-17T02:14:54.171Z,99.99
2017-07-17T02:16:06.834Z,99.99
2017-07-17T02:17:19.067Z,99.99
2017-07-17T02:18:31.597Z,99.99
2017-07-17T02:19:43.558Z,99.99
2017-07-17T02:20:56.179Z,99.99
2017-07-17T02:22:08.508Z,99.99
2017-07-17T02:23:20.545Z,99.99
2017-07-17T02:24:31.908Z,99.99
2017-07-17T02:25:43.882Z,99.99
2017-07-17T02:26:56.500Z,99.99
2017-07-17T02:28:08.823Z,99.99
2017-07-17T02:29:20.789Z,99.99
2017-07-17T02:30:33.083Z,99.99
2017-07-17T02:31:45.751Z,99.99
2017-07-17T02:32:58.357Z,99.99
2017-07-17T02:34:10.376Z,99.99
2017-07-17T02:35:22.963Z,99.99
2017-07-17T02:36:35.216Z,99.99
2017-07-17T02:37:47.173Z,99.99
2017-07-17T02:38:59.100Z,99.99
2017-07-17T02:40:11.730Z,99.99
2017-07-17T02:41:24.293Z,99.99
2017-07-17T02:42:36.906Z,99.99
2017-07-17T02:43:49.211Z,99.99
2017-07-17T02:45:01.456Z,99.99
2017-07-17T02:46:14.258Z,99.99
2017-07-17T02:47:26.514Z,99.99
2017-07-17T02:48:38.782Z,99.99
2017-07-17T02:49:51.036Z,99.99
2017-07-17T02:51:03.037Z,99.99
2017-07-17T02:52:15.575Z,99.99
2017-07-17T02:53:27.204Z,99.99
2017-07-17T02:54:39.158Z,99.99
2017-07-17T02:55:51.744Z,99.99
2017-07-17T02:57:04.032Z,99.99
2017-07-17T02:58:16.344Z,99.99
2017-07-17T02:59:29.001Z,99.99
2017-07-17T03:00:40.926Z,99.99
2017-07-17T03:01:53.184Z,99.99
2017-07-17T03:03:05.800Z,99.99
2017-07-17T03:04:18.163Z,99.99
2017-07-17T03:05:30.466Z,99.99
2017-07-17T03:06:42.715Z,99.99
2017-07-17T03:07:55.017Z,99.99
2017-07-17T03:09:06.988Z,99.99
2017-07-17T03:10:19.644Z,99.99
2017-07-17T03:11:32.190Z,99.99
2017-07-17T03:12:44.493Z,99.99
2017-07-17T03:13:57.134Z,99.99
2017-07-17T03:15:08.804Z,99.99
2017-07-17T03:16:20.490Z,99.99
2017-07-17T03:17:32.503Z,99.99
2017-07-17T03:18:45.174Z,99.99
2017-07-17T03:19:57.814Z,99.99
2017-07-17T03:21:09.457Z,99.99
2017-07-17T03:22:22.088Z,99.99
2017-07-17T03:23:33.728Z,99.99
2017-07-17T03:24:45.773Z,99.99
2017-07-17T03:25:58.480Z,99.99
2017-07-17T03:27:10.536Z,99.99
2017-07-17T03:28:22.536Z,99.99
2017-07-17T03:29:33.881Z,99.99
2017-07-17T03:30:46.195Z,99.99
2017-07-17T03:31:58.471Z,99.99
2017-07-17T03:33:10.181Z,99.99
2017-07-17T03:34:22.781Z,99.99
2017-07-17T03:35:35.413Z,99.99
2017-07-17T03:36:47.992Z,99.99
2017-07-17T03:37:59.976Z,99.99
2017-07-17T03:39:11.964Z,99.99
2017-07-17T03:40:23.332Z,99.99
2017-07-17T03:41:35.691Z,99.99
2017-07-17T03:42:47.974Z,99.99
2017-07-17T03:44:00.291Z,99.99
2017-07-17T03:45:12.251Z,99.99
2017-07-17T03:46:24.312Z,99.99
2017-07-17T03:47:36.624Z,99.99
2017-07-17T03:48:49.240Z,99.99
2017-07-17T03:50:01.836Z,99.99
2017-07-17T03:51:14.127Z,99.99
2017-07-17T03:52:26.378Z,99.99
2017-07-17T03:53:39.018Z,99.99
2017-07-17T03:54:51.334Z,99.99
2017-07-17T03:56:03.593Z,99.99
2017-07-17T03:57:15.580Z,99.99
2017-07-17T03:58:28.191Z,99.99
2017-07-17T03:59:40.772Z,99.99
2017-07-17T04:00:52.735Z,99.99
2017-07-17T04:02:05.077Z,99.99
2017-07-17T04:03:16.721Z,99.99
2017-07-17T04:04:29.317Z,99.99
2017-07-17T04:05:41.307Z,99.99
2017-07-17T04:06:53.908Z,99.99
2017-07-17T04:08:06.560Z,99.99
2017-07-17T04:09:18.829Z,99.99
2017-07-17T04:10:31.115Z,99.99
2017-07-17T04:11:43.706Z,99.99
2017-07-17T04:12:56.251Z,99.99
2017-07-17T04:14:08.858Z,99.99
2017-07-17T04:15:20.487Z,99.99
2017-07-17T04:16:32.775Z,99.99
2017-07-17T04:17:44.803Z,99.99
2017-07-17T04:18:57.478Z,99.99
2017-07-17T04:20:09.461Z,99.99
2017-07-17T04:21:21.745Z,99.99
2017-07-17T04:22:34.353Z,99.99
2017-07-17T04:23:46.024Z,99.99
2017-07-17T04:24:58.296Z,99.99
2017-07-17T04:26:10.317Z,99.99
2017-07-17T04:27:22.648Z,99.99
2017-07-17T04:28:35.245Z,99.99
2017-07-17T04:29:47.239Z,99.99
2017-07-17T04:30:59.823Z,99.99
2017-07-17T04:32:12.420Z,99.99
2017-07-17T04:33:25.056Z,99.99
2017-07-17T04:34:37.005Z,99.99
2017-07-17T04:35:49.564Z,99.99
2017-07-17T04:37:01.576Z,99.99
2017-07-17T04:38:13.862Z,99.99
2017-07-17T04:39:25.800Z,99.99
2017-07-17T04:40:37.815Z,99.99
2017-07-17T04:41:50.080Z,99.99
2017-07-17T04:43:02.408Z,99.99
2017-07-17T04:44:14.983Z,99.99
2017-07-17T04:45:27.801Z,99.99
2017-07-17T04:46:39.771Z,99.99
2017-07-17T04:47:52.350Z,99.99
2017-07-17T04:49:04.354Z,99.99
2017-07-17T04:50:16.644Z,99.99
2017-07-17T04:51:28.942Z,99.99
2017-07-17T04:52:41.268Z,99.99
2017-07-17T04:53:52.906Z,99.99
2017-07-17T04:55:05.264Z,99.99
2017-07-17T04:56:17.830Z,99.99
2017-07-17T04:57:30.052Z,99.99
2017-07-17T04:58:42.686Z,99.99
2017-07-17T04:59:54.650Z,99.99
2017-07-17T05:01:06.619Z,99.99
2017-07-17T05:02:18.569Z,99.99
2017-07-17T05:03:30.843Z,99.99
2017-07-17T05:04:43.433Z,99.99
2017-07-17T05:05:55.729Z,99.99
2017-07-17T05:07:07.691Z,99.99
2017-07-17T05:08:19.027Z,99.99
2017-07-17T05:09:31.310Z,99.99
2017-07-17T05:10:43.868Z,99.99
2017-07-17T05:11:56.148Z,99.99
2017-07-17T05:13:08.731Z,99.99
2017-07-17T05:14:20.970Z,99.99
2017-07-17T05:15:32.623Z,99.99
2017-07-17T05:16:44.325Z,99.99
2017-07-17T05:17:56.631Z,99.99
2017-07-17T05:19:09.262Z,99.99
2017-07-17T05:20:21.537Z,99.99
2017-07-17T05:21:33.871Z,99.99
2017-07-17T05:22:46.425Z,99.99
2017-07-17T05:23:58.093Z,99.99
2017-07-17T05:25:10.092Z,99.99
2017-07-17T05:26:22.084Z,99.99
2017-07-17T05:27:34.065Z,99.99
2017-07-17T05:28:46.379Z,99.99
2017-07-17T05:29:58.965Z,99.99
2017-07-17T05:31:11.258Z,99.99
2017-07-17T05:32:23.507Z,99.99
2017-07-17T05:33:35.803Z,99.99
2017-07-17T05:34:48.146Z,99.99
2017-07-17T05:36:00.402Z,99.99
2017-07-17T05:37:12.380Z,99.99
2017-07-17T05:38:24.962Z,99.99
2017-07-17T05:39:37.259Z,99.99
2017-07-17T05:40:49.851Z,99.99
2017-07-17T05:42:02.131Z,99.99
2017-07-17T05:43:14.423Z,99.99
2017-07-17T05:44:27.031Z,99.99
2017-07-17T05:45:38.971Z,99.99
2017-07-17T05:46:51.255Z,99.99
2017-07-17T05:48:03.601Z,99.99
2017-07-17T05:49:15.544Z,99.99
2017-07-17T05:50:28.206Z,99.99
2017-07-17T05:51:40.810Z,99.99
2017-07-17T05:52:53.131Z,99.99
2017-07-17T05:54:05.085Z,99.99
2017-07-17T05:55:17.732Z,99.99
2017-07-17T05:56:29.976Z,99.99
2017-07-17T05:57:42.581Z,99.99
2017-07-17T05:58:55.154Z,99.99
2017-07-17T06:00:06.871Z,99.99
2017-07-17T06:01:19.460Z,99.99
2017-07-17T06:02:32.055Z,99.99
2017-07-17T06:03:44.626Z,99.99
2017-07-17T06:04:56.923Z,99.99
2017-07-17T06:06:09.249Z,99.99
2017-07-17T06:07:21.581Z,99.99
2017-07-17T06:08:33.542Z,99.99
2017-07-17T06:09:45.862Z,99.99
2017-07-17T06:10:57.923Z,99.99
2017-07-17T06:12:09.923Z,99.99
2017-07-17T06:13:22.550Z,99.99
2017-07-17T06:14:34.533Z,99.99
2017-07-17T06:15:47.099Z,99.99
2017-07-17T06:16:59.388Z,99.99
2017-07-17T06:18:11.367Z,99.99
2017-07-17T06:19:23.685Z,99.99
2017-07-17T06:20:36.001Z,99.99
2017-07-17T06:21:48.339Z,99.99
2017-07-17T06:23:00.646Z,99.99
2017-07-17T06:24:12.964Z,99.99
2017-07-17T06:25:24.992Z,99.99
2017-07-17T06:26:37.606Z,99.99
2017-07-17T06:27:49.908Z,99.99
2017-07-17T06:29:02.489Z,99.99
2017-07-17T06:30:14.477Z,99.99
2017-07-17T06:31:26.739Z,99.99
2017-07-17T06:32:39.317Z,99.99
2017-07-17T06:33:51.926Z,99.99
2017-07-17T06:35:04.191Z,99.99
2017-07-17T06:36:16.753Z,99.99
2017-07-17T06:37:29.038Z,99.99
2017-07-17T06:38:41.273Z,99.99
2017-07-17T06:39:53.825Z,99.99
2017-07-17T06:41:06.200Z,99.99
2017-07-17T06:42:18.540Z,99.99
2017-07-17T06:43:30.863Z,99.99
2017-07-17T06:44:42.871Z,99.99
2017-07-17T06:45:55.479Z,99.99
2017-07-17T06:47:07.443Z,99.99
2017-07-17T06:48:19.427Z,99.99
2017-07-17T06:49:32.096Z,99.99
2017-07-17T06:50:44.403Z,99.99
2017-07-17T06:51:56.459Z,99.99
2017-07-17T06:53:09.121Z,99.99
2017-07-17T06:54:21.470Z,99.99
2017-07-17T06:55:34.050Z,99.99
2017-07-17T06:56:45.681Z,99.99
2017-07-17T06:57:58.053Z,99.99
2017-07-17T06:59:10.408Z,99.99
2017-07-17T07:00:23.101Z,99.99
2017-07-17T07:01:35.415Z,99.99
2017-07-17T07:02:47.662Z,99.99
2017-07-17T07:03:59.655Z,99.99
2017-07-17T07:05:11.611Z,99.99
2017-07-17T07:06:23.897Z,99.99
2017-07-17T07:07:36.495Z,99.99
2017-07-17T07:08:49.117Z,99.99
2017-07-17T07:10:01.423Z,99.99
2017-07-17T07:11:13.116Z,99.99
2017-07-17T07:12:25.383Z,99.99
2017-07-17T07:13:36.737Z,99.99
2017-07-17T07:14:48.795Z,99.99
2017-07-17T07:16:01.381Z,99.99
2017-07-17T07:17:13.968Z,99.99
2017-07-17T07:18:26.284Z,99.99
2017-07-17T07:19:38.603Z,98.58
2017-07-17T07:20:51.177Z,96.46
2017-07-17T07:22:03.515Z,96.32
2017-07-17T07:23:15.478Z,94.63
2017-07-17T07:24:26.211Z,95.35
2017-07-17T07:25:38.839Z,98.83
2017-07-17T07:26:51.420Z,98.54
2017-07-17T07:28:03.083Z,95.88
2017-07-17T07:29:15.672Z,96.61
2017-07-17T07:30:28.272Z,97.52
2017-07-17T07:31:40.885Z,95.4
2017-07-17T07:32:52.571Z,96.07
2017-07-17T07:34:04.532Z,93.9
2017-07-17T07:35:16.830Z,93.6
2017-07-17T07:36:29.159Z,93.9
2017-07-17T07:37:41.210Z,93.51
2017-07-17T07:38:53.757Z,94.86
2017-07-17T07:40:06.370Z,95.88
2017-07-17T07:41:18.649Z,93.17
2017-07-17T07:42:30.929Z,89.59
2017-07-17T07:43:42.951Z,91.63
2017-07-17T07:44:55.581Z,91.91
2017-07-17T07:46:07.551Z,86.83
2017-07-17T07:47:19.819Z,91.48
2017-07-17T07:48:32.110Z,93.9
2017-07-17T07:49:44.087Z,93.94
2017-07-17T07:50:55.713Z,92.4
2017-07-17T07:52:06.793Z,88.91
2017-07-17T07:53:17.530Z,89.11
2017-07-17T07:54:28.565Z,86.98
2017-07-17T07:55:40.225Z,87.41
2017-07-17T07:56:52.228Z,89.83
2017-07-17T07:58:04.531Z,91.48
2017-07-17T07:59:15.887Z,87.9
2017-07-17T08:00:28.490Z,90.03
2017-07-17T08:01:40.751Z,87.13
2017-07-17T08:02:53.033Z,89.35
2017-07-17T08:04:05.327Z,89.69
2017-07-17T08:05:17.898Z,89.59
2017-07-17T08:06:30.245Z,85.91
2017-07-17T08:07:41.907Z,86.4
2017-07-17T08:08:54.219Z,89.25
2017-07-17T08:10:06.582Z,88.87
2017-07-17T08:11:18.851Z,89.15
2017-07-17T08:12:31.195Z,90.61
2017-07-17T08:13:42.508Z,91.38
2017-07-17T08:14:54.470Z,90.65
2017-07-17T08:16:06.785Z,88.13
2017-07-17T08:17:18.748Z,87.36
2017-07-17T08:18:31.027Z,88.77
2017-07-17T08:19:43.336Z,89.06
2017-07-17T08:20:55.612Z,89.93
2017-07-17T08:22:07.569Z,91.48
2017-07-17T08:23:18.868Z,94.67
2017-07-17T08:24:30.250Z,89.59
2017-07-17T08:25:42.878Z,90.75
2017-07-17T08:26:55.449Z,89.78
2017-07-17T08:28:07.497Z,91.42
2017-07-17T08:29:20.090Z,91.24
2017-07-17T08:30:32.739Z,87.65
2017-07-17T08:31:45.349Z,88.13
2017-07-17T08:32:57.743Z,86.59
2017-07-17T08:34:10.066Z,89.11
2017-07-17T08:35:22.738Z,90.36
2017-07-17T08:36:35.346Z,88.28
2017-07-17T08:37:47.631Z,86.05
2017-07-17T08:39:00.491Z,87.7
2017-07-17T08:40:12.183Z,88.47
2017-07-17T08:41:24.552Z,86.54
2017-07-17T08:42:36.512Z,87.21
2017-07-17T08:43:48.768Z,87.21
2017-07-17T08:45:01.141Z,88.18
2017-07-17T08:46:13.486Z,89.25
2017-07-17T08:47:25.567Z,89.15
2017-07-17T08:48:37.866Z,83.73
2017-07-17T08:49:49.853Z,82.86
2017-07-17T08:51:02.458Z,84.75
2017-07-17T08:52:14.494Z,83.98
2017-07-17T08:53:26.465Z,83.59
2017-07-17T08:54:39.110Z,83.16
2017-07-17T08:55:51.375Z,83.84
2017-07-17T08:57:04.026Z,88.29
2017-07-17T08:58:14.804Z,88.29
2017-07-17T08:59:26.221Z,88.39
2017-07-17T09:00:39.069Z,86.65
2017-07-17T09:01:51.383Z,85.62
2017-07-17T09:03:03.463Z,85.91
2017-07-17T09:04:15.825Z,84.17
2017-07-17T09:05:28.112Z,85.42
2017-07-17T09:06:40.096Z,86.01
2017-07-17T09:07:52.454Z,84.94
2017-07-17T09:09:04.133Z,82.14
2017-07-17T09:10:16.128Z,78.56
2017-07-17T09:11:28.439Z,81.46
2017-07-17T09:12:40.750Z,82.23
2017-07-17T09:13:53.353Z,82.91
2017-07-17T09:15:05.040Z,82.53
2017-07-17T09:16:16.997Z,81.37
2017-07-17T09:17:28.990Z,82.72
2017-07-17T09:18:41.593Z,80.63
2017-07-17T09:19:54.246Z,78.59
2017-07-17T09:21:06.565Z,78.21
2017-07-17T09:22:18.234Z,77.14
2017-07-17T09:23:29.883Z,77.92
2017-07-17T09:24:41.883Z,79.27
2017-07-17T09:25:54.240Z,76.76
2017-07-17T09:27:06.619Z,74.82
2017-07-17T09:28:19.270Z,75.89
2017-07-17T09:29:31.572Z,76.76
2017-07-17T09:30:43.327Z,75.98
2017-07-17T09:31:55.336Z,76.08
2017-07-17T09:33:07.624Z,78.89
2017-07-17T09:34:19.980Z,78.31
2017-07-17T09:35:32.219Z,78.02
2017-07-17T09:36:44.873Z,78.83
2017-07-17T09:37:57.540Z,74.66
2017-07-17T09:39:09.533Z,73.66
2017-07-17T09:40:21.876Z,75.85
2017-07-17T09:41:33.845Z,75.65
2017-07-17T09:42:45.522Z,76.62
2017-07-17T09:43:58.157Z,77.88
2017-07-17T09:45:10.183Z,78.66
2017-07-17T09:46:22.808Z,78.27
2017-07-17T09:47:34.905Z,78.31
2017-07-17T09:48:46.871Z,75.4
2017-07-17T09:49:58.840Z,73.21
2017-07-17T09:51:10.880Z,73.5
2017-07-17T09:52:22.622Z,75.24
2017-07-17T09:53:34.283Z,74.76
2017-07-17T09:54:45.976Z,73.69
2017-07-17T09:55:57.973Z,74.02
2017-07-17T09:57:09.946Z,75.38
2017-07-17T09:58:22.590Z,73.35
2017-07-17T09:59:34.589Z,73.05
2017-07-17T10:00:46.913Z,73.93
2017-07-17T10:01:59.555Z,72.09
2017-07-17T10:03:11.858Z,73.09
2017-07-17T10:04:24.522Z,71.44
2017-07-17T10:05:36.819Z,71.73
2017-07-17T10:06:49.218Z,71.28
2017-07-17T10:08:01.780Z,70.73
2017-07-17T10:09:14.396Z,67.86
2017-07-17T10:10:27.016Z,68.05
2017-07-17T10:11:39.636Z,67.6
2017-07-17T10:12:51.614Z,67.21
2017-07-17T10:14:03.966Z,66.37
2017-07-17T10:15:15.936Z,65.2
2017-07-17T10:16:28.245Z,65.79
2017-07-17T10:17:40.559Z,67.34
2017-07-17T10:18:52.882Z,67.15
2017-07-17T10:20:04.589Z,65.98
2017-07-17T10:21:16.319Z,65.33
2017-07-17T10:22:28.309Z,63.39
2017-07-17T10:23:40.571Z,65.72
2017-07-17T10:24:51.950Z,64.29
2017-07-17T10:26:03.986Z,64.32
2017-07-17T10:27:15.946Z,63.68
2017-07-17T10:28:28.241Z,62.7
2017-07-17T10:29:40.876Z,61.47
2017-07-17T10:30:52.502Z,60.13
2017-07-17T10:32:05.127Z,58.31
2017-07-17T10:33:17.448Z,58.89
2017-07-17T10:34:29.779Z,59.22
2017-07-17T10:35:41.781Z,56.2
2017-07-17T10:36:53.760Z,56.22
2017-07-17T10:38:06.381Z,56.97
2017-07-17T10:39:18.081Z,57.43
2017-07-17T10:40:29.735Z,59.64
2017-07-17T10:41:42.016Z,59.06
2017-07-17T10:42:54.630Z,59.45
2017-07-17T10:44:06.950Z,58.97
2017-07-17T10:45:18.962Z,58.31
2017-07-17T10:46:31.242Z,57.92
2017-07-17T10:47:43.545Z,57.73
2017-07-17T10:48:55.869Z,58.7
2017-07-17T10:50:07.907Z,59.41
2017-07-17T10:51:20.195Z,58.34
2017-07-17T10:52:32.803Z,57.68
2017-07-17T10:53:44.474Z,54.98
2017-07-17T10:54:57.102Z,53.97
2017-07-17T10:56:09.126Z,55.08
2017-07-17T10:57:21.800Z,56.32
2017-07-17T10:58:34.129Z,55.54
2017-07-17T10:59:46.405Z,54.56
2017-07-17T11:00:59.027Z,54.95
2017-07-17T11:02:11.333Z,55.34
2017-07-17T11:03:23.070Z,55.93
2017-07-17T11:04:35.657Z,56.2
2017-07-17T11:05:48.249Z,56.77
2017-07-17T11:07:00.881Z,56.75
2017-07-17T11:08:12.858Z,56.75
2017-07-17T11:09:25.153Z,57.89
2017-07-17T11:10:37.135Z,58.5
2017-07-17T11:11:49.773Z,57.95
2017-07-17T11:13:02.415Z,55.51
2017-07-17T11:14:14.751Z,55.54
2017-07-17T11:15:27.404Z,53.88
2017-07-17T11:16:39.733Z,54.17
2017-07-17T11:17:52.037Z,54.93
2017-07-17T11:19:04.366Z,54.99
2017-07-17T11:20:17.024Z,55.97
2017-07-17T11:21:29.709Z,55.77
2017-07-17T11:22:42.057Z,56.97
2017-07-17T11:23:53.735Z,57.26
2017-07-17T11:25:05.369Z,56.84
2017-07-17T11:26:16.717Z,55.86
2017-07-17T11:27:28.736Z,55
2017-07-17T11:28:41.099Z,54.15
2017-07-17T11:29:53.348Z,53
2017-07-17T11:31:05.364Z,52.73
2017-07-17T11:32:17.700Z,52.64
2017-07-17T11:33:29.069Z,52.08
2017-07-17T11:34:40.765Z,52.86
2017-07-17T11:35:53.154Z,53.64
2017-07-17T11:37:05.455Z,54.01
2017-07-17T11:38:17.777Z,53.23
2017-07-17T11:39:29.832Z,51.05
2017-07-17T11:40:41.849Z,51.64
2017-07-17T11:41:54.413Z,50.73
2017-07-17T11:43:06.701Z,51.1
2017-07-17T11:44:18.656Z,51.95
2017-07-17T11:45:31.326Z,52.66
2017-07-17T11:56:40.417Z,53.49
2017-07-17T11:59:03.777Z,53.56
2017-07-17T12:00:16.345Z,53.73
2017-07-17T12:01:28.963Z,54.09
2017-07-17T12:02:41.544Z,54.19
2017-07-17T12:03:54.142Z,53.89
2017-07-17T12:06:17.396Z,54.77
2017-07-17T12:07:30.062Z,55.82
2017-07-17T12:08:42.698Z,54.55
2017-07-17T12:09:55.303Z,53.7
2017-07-17T12:11:07.621Z,54.65
2017-07-17T12:12:20.290Z,54.06
2017-07-17T12:13:32.649Z,54.19
2017-07-17T12:14:44.987Z,54.28
2017-07-17T12:15:57.598Z,53.44
2017-07-17T12:17:10.286Z,52.75
2017-07-17T12:18:22.293Z,52.56
2017-07-17T12:19:34.977Z,53.95
2017-07-17T12:20:47.271Z,52.68
2017-07-17T12:21:59.559Z,52.51
2017-07-17T12:23:12.187Z,51.95
2017-07-17T12:24:24.796Z,51.27
2017-07-17T12:25:37.467Z,51.1
2017-07-17T12:26:49.770Z,50.83
2017-07-17T12:28:02.092Z,49.07
2017-07-17T12:29:14.727Z,49.16
2017-07-17T12:30:27.101Z,49.19
2017-07-17T12:31:39.718Z,49.38
2017-07-17T12:32:52.345Z,49.02
2017-07-17T12:34:04.652Z,49.31
2017-07-17T12:35:16.969Z,49.31
2017-07-17T12:36:29.333Z,48.14
2017-07-17T12:37:41.967Z,47.72
2017-07-17T12:38:53.920Z,49.19
2017-07-17T12:40:06.570Z,48.02
2017-07-17T12:41:19.211Z,49.26
2017-07-17T12:42:31.190Z,48.68
2017-07-17T12:43:43.873Z,49.26
2017-07-17T12:44:56.151Z,48.68
2017-07-17T12:46:08.783Z,49.46
2017-07-17T12:47:21.432Z,48.97
2017-07-17T12:48:33.814Z,48.97
2017-07-17T12:49:46.051Z,50.2
2017-07-17T12:50:58.690Z,50.98
2017-07-17T12:52:10.747Z,51.14
2017-07-17T12:53:22.989Z,50.26
2017-07-17T12:54:35.618Z,50.92
2017-07-17T12:55:48.265Z,51.7
2017-07-17T12:57:00.598Z,50.92
2017-07-17T12:58:13.261Z,50.53
2017-07-17T12:59:24.975Z,51.31
2017-07-17T13:00:37.270Z,51.82
2017-07-17T13:01:49.897Z,51.04
2017-07-17T13:03:02.243Z,51.37
2017-07-17T13:04:14.592Z,51.86
2017-07-17T13:05:26.284Z,51.95
2017-07-17T13:06:38.614Z,51.04
2017-07-17T13:07:51.348Z,51.24
2017-07-17T13:09:03.692Z,51.41
2017-07-17T13:10:15.998Z,51.41
2017-07-17T13:11:28.345Z,51.17
2017-07-17T13:12:40.991Z,52.4
2017-07-17T13:13:53.387Z,53.16
2017-07-17T13:15:06.084Z,54.72
2017-07-17T13:16:18.730Z,54.4
2017-07-17T13:17:30.715Z,54.79
2017-07-17T13:18:43.312Z,52.87
2017-07-17T13:19:55.941Z,52.87
2017-07-17T13:21:08.287Z,53.55
2017-07-17T13:22:20.652Z,54.75
2017-07-17T13:23:33.337Z,54.46
2017-07-17T13:24:45.678Z,54.97
2017-07-17T13:25:57.731Z,52.04
2017-07-17T13:27:10.376Z,51.09
2017-07-17T13:28:22.431Z,50.99
2017-07-17T13:29:34.727Z,50.9
2017-07-17T13:30:47.088Z,51.21
2017-07-17T13:31:59.684Z,50.85
2017-07-17T13:33:11.981Z,50.88
2017-07-17T13:34:24.659Z,49.71
2017-07-17T13:35:37.231Z,49.12
2017-07-17T13:36:49.843Z,49.04
2017-07-17T13:38:02.457Z,49.04
2017-07-17T13:39:14.499Z,48.38
2017-07-17T13:40:27.103Z,48.85
2017-07-17T13:41:39.382Z,50.29
2017-07-17T13:42:51.736Z,50.59
2017-07-17T13:44:04.402Z,49.12
2017-07-17T13:45:16.669Z,49.12
2017-07-17T13:46:28.970Z,50.26
2017-07-17T13:47:40.915Z,49.29
2017-07-17T13:48:53.243Z,49.39
2017-07-17T13:50:05.897Z,48.8
2017-07-17T13:51:18.589Z,48.41
2017-07-17T13:52:31.238Z,48.71
2017-07-17T13:53:43.872Z,49.19
2017-07-17T13:54:56.484Z,49.12
2017-07-17T13:56:09.096Z,49.22
2017-07-17T13:57:21.164Z,48.93
2017-07-17T13:58:33.813Z,49.22
2017-07-17T13:59:46.451Z,48.93
2017-07-17T14:00:59.146Z,49.14
2017-07-17T14:02:11.769Z,48.94
2017-07-17T14:03:24.409Z,47.97
2017-07-17T14:04:37.060Z,47.7
2017-07-17T14:05:49.145Z,47.02
2017-07-17T14:07:01.429Z,46.84
2017-07-17T14:08:14.033Z,46.45
2017-07-17T14:09:26.421Z,46.28
2017-07-17T14:10:38.091Z,46.18
2017-07-17T14:11:50.425Z,45.4
2017-07-17T14:13:02.799Z,45.79
2017-07-17T14:14:14.811Z,46.57
2017-07-17T14:15:27.527Z,46.67
2017-07-17T14:16:40.108Z,46.55
2017-07-17T14:17:52.687Z,47.6
2017-07-17T14:19:05.072Z,48.16
2017-07-17T14:20:17.713Z,47.95
2017-07-17T14:21:30.324Z,47.85
2017-07-17T14:22:42.937Z,47.83
2017-07-17T14:23:54.679Z,48
2017-07-17T14:25:06.723Z,48.56
2017-07-17T14:26:19.384Z,48.83
2017-07-17T14:27:32.091Z,49.12
2017-07-17T14:28:44.756Z,48.9
2017-07-17T14:29:57.072Z,50.14
2017-07-17T14:31:09.412Z,50.53
2017-07-17T14:32:21.773Z,50.53
2017-07-17T14:33:34.388Z,50.43
2017-07-17T14:34:47.058Z,49.46
2017-07-17T14:35:59.073Z,49.95
2017-07-17T14:37:11.709Z,50.04
2017-07-17T14:38:24.068Z,50.02
2017-07-17T14:39:36.090Z,51.19
2017-07-17T14:40:48.760Z,51.19
2017-07-17T14:42:01.382Z,50.99
2017-07-17T14:43:14.003Z,51.29
2017-07-17T14:44:26.029Z,50.99
2017-07-17T14:45:38.054Z,51.39
2017-07-17T14:46:50.690Z,50.8
2017-07-17T14:48:03.285Z,51.67
2017-07-17T14:49:15.897Z,52.26
2017-07-17T14:50:28.278Z,50.41
2017-07-17T14:51:40.909Z,50.87
2017-07-17T14:52:53.594Z,51.36
2017-07-17T14:54:06.229Z,52.82
2017-07-17T14:55:18.570Z,52.5
2017-07-17T14:56:30.591Z,52.69
2017-07-17T14:57:43.279Z,53.86
2017-07-17T14:58:55.301Z,54.05
2017-07-17T15:00:07.609Z,54.03
2017-07-17T15:01:19.952Z,54.61
2017-07-17T15:02:32.553Z,54.32
2017-07-17T15:03:44.867Z,54.61
2017-07-17T15:04:57.121Z,54.52
2017-07-17T15:06:09.485Z,55.19
2017-07-17T15:07:22.071Z,54.68
2017-07-17T15:08:34.692Z,54.49
2017-07-17T15:09:46.417Z,54.56
2017-07-17T15:10:59.080Z,55.33
2017-07-17T15:12:11.433Z,55.5
2017-07-17T15:13:23.792Z,55.89
2017-07-17T15:14:36.093Z,56.86
2017-07-17T15:15:48.423Z,57.34
2017-07-17T15:17:01.099Z,57.22
2017-07-17T15:18:13.724Z,57.03
2017-07-17T15:19:26.007Z,57.42
2017-07-17T15:20:37.998Z,56.93
2017-07-17T15:21:50.322Z,56.71
2017-07-17T15:23:02.616Z,57.19
2017-07-17T15:24:15.237Z,56.71
2017-07-17T15:25:27.528Z,57.48
2017-07-17T15:26:39.857Z,57.58
2017-07-17T15:27:51.859Z,58.23
2017-07-17T15:29:03.570Z,58.91
2017-07-17T15:30:15.859Z,59.2
2017-07-17T15:31:28.506Z,59.39
2017-07-17T15:32:40.823Z,59.75
2017-07-17T15:33:53.460Z,58.88
2017-07-17T15:35:05.766Z,58.11
2017-07-17T15:36:18.069Z,58.98
2017-07-17T15:37:30.426Z,58.88
2017-07-17T15:38:42.752Z,59.14
2017-07-17T15:39:54.763Z,60.21
2017-07-17T15:41:07.365Z,60.5
2017-07-17T15:42:19.951Z,60.4
2017-07-17T15:43:32.571Z,60.01
2017-07-17T15:44:44.886Z,60.85
2017-07-17T15:45:57.467Z,61.24